DGT weather

Sibulan Airport
Dumaguete City, Negros Oriental Province, Philippines

Public forecast

Using degrees Celsius for public forecast. Weather courtesy of forecast.io.

METAR (pilot weather report)

Retrieved 2019/03/19 03:00 UTC (49 minutes ago):

RPVD 190300Z 29004KT 6000 -RA BKN014 OVC060 26/25 Q1013 RMK A2991

TAF (pilot weather forecast)

Forecast is more than 12 hours old.

Retrieved 2019/03/15 00:00 UTC (4 days ago):

TAF RPVD 152300Z 1600/1624 02008KT 9999 FEW015 TEMPO 1600/1606 04010KT FEW014CB FEW015